sensor_id;sensor_type;location;lat;lon;timestamp;pressure;altitude;pressure_sealevel;temperature;humidity
4836;BME280;2432;51.226;6.904;2022-09-17T00:00:50;100521.03;;;10.57;100.00
4836;BME280;2432;51.226;6.904;2022-09-17T00:03:17;100519.38;;;10.55;100.00
4836;BME280;2432;51.226;6.904;2022-09-17T00:05:44;100528.13;;;10.54;100.00
4836;BME280;2432;51.226;6.904;2022-09-17T00:08:12;100527.19;;;10.56;100.00
4836;BME280;2432;51.226;6.904;2022-09-17T00:10:42;100519.38;;;10.55;100.00
4836;BME280;2432;51.226;6.904;2022-09-17T00:13:10;100523.63;;;10.59;100.00
4836;BME280;2432;51.226;6.904;2022-09-17T00:15:44;100522.81;;;10.57;100.00
4836;BME280;2432;51.226;6.904;2022-09-17T00:18:15;100527.22;;;10.55;100.00
4836;BME280;2432;51.226;6.904;2022-09-17T00:20:44;100524.44;;;10.62;100.00
4836;BME280;2432;51.226;6.904;2022-09-17T00:23:11;100523.56;;;10.62;100.00
4836;BME280;2432;51.226;6.904;2022-09-17T00:25:42;100533.19;;;10.61;100.00
4836;BME280;2432;51.226;6.904;2022-09-17T00:28:10;100535.84;;;10.58;100.00
4836;BME280;2432;51.226;6.904;2022-09-17T00:30:42;100532.34;;;10.59;100.00
4836;BME280;2432;51.226;6.904;2022-09-17T00:33:14;100530.56;;;10.60;100.00
4836;BME280;2432;51.226;6.904;2022-09-17T00:35:42;100533.16;;;10.63;100.00
4836;BME280;2432;51.226;6.904;2022-09-17T00:38:09;100537.56;;;10.61;100.00
4836;BME280;2432;51.226;6.904;2022-09-17T00:40:36;100534.09;;;10.60;100.00
4836;BME280;2432;51.226;6.904;2022-09-17T00:43:02;100541.91;;;10.62;100.00
4836;BME280;2432;51.226;6.904;2022-09-17T00:45:30;100547.09;;;10.63;100.00
4836;BME280;2432;51.226;6.904;2022-09-17T00:47:59;100538.66;;;10.49;100.00
4836;BME280;2432;51.226;6.904;2022-09-17T00:50:30;100547.53;;;10.42;100.00
4836;BME280;2432;51.226;6.904;2022-09-17T00:53:09;100549.44;;;10.35;100.00
4836;BME280;2432;51.226;6.904;2022-09-17T00:55:40;100551.25;;;10.32;100.00
4836;BME280;2432;51.226;6.904;2022-09-17T00:58:09;100551.31;;;10.29;100.00
4836;BME280;2432;51.226;6.904;2022-09-17T01:00:37;100555.75;;;10.25;100.00
4836;BME280;2432;51.226;6.904;2022-09-17T01:03:03;100563.72;;;10.17;100.00
4836;BME280;2432;51.226;6.904;2022-09-17T01:10:53;100559.25;;;10.24;100.00
4836;BME280;2432;51.226;6.904;2022-09-17T01:16:19;100541.03;;;10.18;100.00
4836;BME280;2432;51.226;6.904;2022-09-17T01:22:05;100548.00;;;10.19;100.00
4836;BME280;2432;51.226;6.904;2022-09-17T01:30:17;100552.28;;;10.23;100.00
4836;BME280;2432;51.226;6.904;2022-09-17T01:35:51;100554.88;;;10.25;100.00
4836;BME280;2432;51.226;6.904;2022-09-17T01:38:33;100562.72;;;10.25;100.00
4836;BME280;2432;51.226;6.904;2022-09-17T01:41:10;100556.63;;;10.26;100.00
4836;BME280;2432;51.226;6.904;2022-09-17T01:46:45;100558.38;;;10.24;100.00
4836;BME280;2432;51.226;6.904;2022-09-17T01:49:15;100553.19;;;10.22;100.00
4836;BME280;2432;51.226;6.904;2022-09-17T01:51:45;100552.25;;;10.26;100.00
4836;BME280;2432;51.226;6.904;2022-09-17T01:54:20;100558.41;;;10.22;100.00
4836;BME280;2432;51.226;6.904;2022-09-17T01:57:05;100550.56;;;10.22;100.00
4836;BME280;2432;51.226;6.904;2022-09-17T01:59:43;100554.06;;;10.21;100.00
4836;BME280;2432;51.226;6.904;2022-09-17T02:02:17;100560.13;;;10.23;100.00
4836;BME280;2432;51.226;6.904;2022-09-17T02:04:56;100556.66;;;10.21;100.00
4836;BME280;2432;51.226;6.904;2022-09-17T02:07:24;100557.56;;;10.20;100.00
4836;BME280;2432;51.226;6.904;2022-09-17T02:12:36;100558.38;;;10.25;100.00
4836;BME280;2432;51.226;6.904;2022-09-17T02:15:06;100559.19;;;10.27;100.00
4836;BME280;2432;51.226;6.904;2022-09-17T02:17:43;100562.69;;;10.28;100.00
4836;BME280;2432;51.226;6.904;2022-09-17T02:20:12;100561.00;;;10.25;100.00
4836;BME280;2432;51.226;6.904;2022-09-17T02:25:22;100566.22;;;10.25;100.00
4836;BME280;2432;51.226;6.904;2022-09-17T02:27:59;100565.38;;;10.23;100.00
4836;BME280;2432;51.226;6.904;2022-09-17T02:30:29;100567.09;;;10.24;100.00
4836;BME280;2432;51.226;6.904;2022-09-17T02:32:58;100564.44;;;10.27;100.00
4836;BME280;2432;51.226;6.904;2022-09-17T02:35:25;100571.47;;;10.25;100.00
4836;BME280;2432;51.226;6.904;2022-09-17T02:37:52;100567.97;;;10.25;100.00
4836;BME280;2432;51.226;6.904;2022-09-17T02:40:20;100567.88;;;10.29;100.00
4836;BME280;2432;51.226;6.904;2022-09-17T02:48:16;100558.22;;;10.31;100.00
4836;BME280;2432;51.226;6.904;2022-09-17T02:53:33;100561.66;;;10.35;100.00
4836;BME280;2432;51.226;6.904;2022-09-17T02:56:36;100564.38;;;10.30;100.00
4836;BME280;2432;51.226;6.904;2022-09-17T02:59:19;100573.00;;;10.35;100.00
4836;BME280;2432;51.226;6.904;2022-09-17T03:01:56;100579.13;;;10.34;100.00
4836;BME280;2432;51.226;6.904;2022-09-17T03:04:26;100571.31;;;10.31;100.00
4836;BME280;2432;51.226;6.904;2022-09-17T03:06:54;100572.19;;;10.32;100.00
4836;BME280;2432;51.226;6.904;2022-09-17T03:09:21;100574.00;;;10.28;100.00
4836;BME280;2432;51.226;6.904;2022-09-17T03:11:48;100574.91;;;10.27;100.00
4836;BME280;2432;51.226;6.904;2022-09-17T03:14:14;100591.50;;;10.26;100.00
4836;BME280;2432;51.226;6.904;2022-09-17T03:16:41;100576.63;;;10.28;100.00
4836;BME280;2432;51.226;6.904;2022-09-17T03:19:07;100574.03;;;10.27;100.00
4836;BME280;2432;51.226;6.904;2022-09-17T03:21:34;100574.97;;;10.23;100.00
4836;BME280;2432;51.226;6.904;2022-09-17T03:24:00;100584.59;;;10.22;100.00
4836;BME280;2432;51.226;6.904;2022-09-17T03:26:27;100585.44;;;10.21;100.00
4836;BME280;2432;51.226;6.904;2022-09-17T03:28:53;100578.50;;;10.20;100.00
4836;BME280;2432;51.226;6.904;2022-09-17T03:31:20;100586.31;;;10.23;100.00
4836;BME280;2432;51.226;6.904;2022-09-17T03:33:46;100575.84;;;10.22;100.00
4836;BME280;2432;51.226;6.904;2022-09-17T03:36:13;100569.75;;;10.21;100.00
4836;BME280;2432;51.226;6.904;2022-09-17T03:38:40;100581.06;;;10.22;100.00
4836;BME280;2432;51.226;6.904;2022-09-17T03:41:06;100568.88;;;10.22;100.00
4836;BME280;2432;51.226;6.904;2022-09-17T03:43:33;100577.59;;;10.23;100.00
4836;BME280;2432;51.226;6.904;2022-09-17T03:46:00;100579.34;;;10.22;100.00
4836;BME280;2432;51.226;6.904;2022-09-17T03:48:26;100581.94;;;10.24;100.00
4836;BME280;2432;51.226;6.904;2022-09-17T03:50:54;100586.25;;;10.26;100.00
4836;BME280;2432;51.226;6.904;2022-09-17T03:53:21;100586.31;;;10.23;100.00
4836;BME280;2432;51.226;6.904;2022-09-17T03:55:48;100574.91;;;10.27;100.00
4836;BME280;2432;51.226;6.904;2022-09-17T03:58:14;100576.66;;;10.27;100.00
4836;BME280;2432;51.226;6.904;2022-09-17T04:00:41;100583.56;;;10.29;100.00
4836;BME280;2432;51.226;6.904;2022-09-17T04:03:08;100580.97;;;10.29;100.00
4836;BME280;2432;51.226;6.904;2022-09-17T04:05:35;100590.56;;;10.29;100.00
4836;BME280;2432;51.226;6.904;2022-09-17T04:08:01;100590.56;;;10.29;100.00
4836;BME280;2432;51.226;6.904;2022-09-17T04:10:27;100591.44;;;10.29;100.00
4836;BME280;2432;51.226;6.904;2022-09-17T04:12:54;100587.09;;;10.28;100.00
4836;BME280;2432;51.226;6.904;2022-09-17T04:15:20;100585.38;;;10.27;100.00
4836;BME280;2432;51.226;6.904;2022-09-17T04:17:47;100594.94;;;10.28;100.00
4836;BME280;2432;51.226;6.904;2022-09-17T04:20:13;100592.28;;;10.30;100.00
4836;BME280;2432;51.226;6.904;2022-09-17T04:22:40;100597.50;;;10.31;100.00
4836;BME280;2432;51.226;6.904;2022-09-17T04:25:07;100601.91;;;10.29;100.00
4836;BME280;2432;51.226;6.904;2022-09-17T04:27:33;100601.84;;;10.31;100.00
4836;BME280;2432;51.226;6.904;2022-09-17T04:30:00;100604.44;;;10.32;100.00
4836;BME280;2432;51.226;6.904;2022-09-17T04:32:26;100615.78;;;10.33;100.00
4836;BME280;2432;51.226;6.904;2022-09-17T04:34:53;100605.34;;;10.31;100.00
4836;BME280;2432;51.226;6.904;2022-09-17T04:37:19;100613.19;;;10.31;100.00
4836;BME280;2432;51.226;6.904;2022-09-17T04:39:47;100612.31;;;10.31;100.00
4836;BME280;2432;51.226;6.904;2022-09-17T04:42:14;100605.34;;;10.31;100.00
4836;BME280;2432;51.226;6.904;2022-09-17T04:44:41;100600.09;;;10.31;100.00
4836;BME280;2432;51.226;6.904;2022-09-17T04:47:07;100616.78;;;10.27;100.00
4836;BME280;2432;51.226;6.904;2022-09-17T04:49:34;100613.34;;;10.25;100.00
4836;BME280;2432;51.226;6.904;2022-09-17T04:52:00;100611.59;;;10.23;100.00
4836;BME280;2432;51.226;6.904;2022-09-17T04:54:27;100614.28;;;10.18;100.00
4836;BME280;2432;51.226;6.904;2022-09-17T04:56:53;100612.56;;;10.17;100.00
4836;BME280;2432;51.226;6.904;2022-09-17T04:59:19;100619.63;;;10.12;100.00
4836;BME280;2432;51.226;6.904;2022-09-17T05:01:46;100611.84;;;10.09;100.00
4836;BME280;2432;51.226;6.904;2022-09-17T05:04:12;100619.69;;;10.07;100.00
4836;BME280;2432;51.226;6.904;2022-09-17T05:06:39;100627.56;;;10.07;100.00
4836;BME280;2432;51.226;6.904;2022-09-17T05:09:05;100622.38;;;10.04;100.00
4836;BME280;2432;51.226;6.904;2022-09-17T05:11:32;100632.03;;;10.02;100.00
4836;BME280;2432;51.226;6.904;2022-09-17T05:13:59;100628.53;;;10.02;100.00
4836;BME280;2432;51.226;6.904;2022-09-17T05:16:26;100631.13;;;10.03;100.00
4836;BME280;2432;51.226;6.904;2022-09-17T05:18:52;100631.19;;;10.00;100.00
4836;BME280;2432;51.226;6.904;2022-09-17T05:21:19;100638.19;;;9.98;100.00
4836;BME280;2432;51.226;6.904;2022-09-17T05:23:46;100625.97;;;10.00;100.00
4836;BME280;2432;51.226;6.904;2022-09-17T05:26:13;100626.84;;;9.99;100.00
4836;BME280;2432;51.226;6.904;2022-09-17T05:28:39;100625.97;;;9.99;100.00
4836;BME280;2432;51.226;6.904;2022-09-17T05:31:06;100628.56;;;9.99;100.00
4836;BME280;2432;51.226;6.904;2022-09-17T05:33:33;100629.44;;;10.01;100.00
4836;BME280;2432;51.226;6.904;2022-09-17T05:35:59;100625.94;;;10.02;100.00
4836;BME280;2432;51.226;6.904;2022-09-17T05:38:26;100643.41;;;10.00;100.00
4836;BME280;2432;51.226;6.904;2022-09-17T05:40:52;100648.63;;;10.00;100.00
4836;BME280;2432;51.226;6.904;2022-09-17T05:43:19;100639.94;;;9.98;100.00
4836;BME280;2432;51.226;6.904;2022-09-17T05:45:45;100660.88;;;9.96;100.00
4836;BME280;2432;51.226;6.904;2022-09-17T05:48:13;100664.34;;;10.00;100.00
4836;BME280;2432;51.226;6.904;2022-09-17T05:50:40;100665.13;;;10.03;100.00
4836;BME280;2432;51.226;6.904;2022-09-17T05:53:10;100670.31;;;10.05;100.00
4836;BME280;2432;51.226;6.904;2022-09-17T05:55:37;100666.78;;;10.09;100.00
4836;BME280;2432;51.226;6.904;2022-09-17T05:58:09;100658.00;;;10.11;100.00
4836;BME280;2432;51.226;6.904;2022-09-17T06:00:36;100667.63;;;10.11;100.00
4836;BME280;2432;51.226;6.904;2022-09-17T06:03:02;100674.56;;;10.12;100.00
4836;BME280;2432;51.226;6.904;2022-09-17T06:05:29;100676.19;;;10.19;100.00
4836;BME280;2432;51.226;6.904;2022-09-17T06:07:55;100677.03;;;10.23;100.00
4836;BME280;2432;51.226;6.904;2022-09-17T06:10:22;100683.16;;;10.20;100.00
4836;BME280;2432;51.226;6.904;2022-09-17T06:12:54;100677.91;;;10.20;100.00
4836;BME280;2432;51.226;6.904;2022-09-17T06:15:21;100685.75;;;10.20;100.00
4836;BME280;2432;51.226;6.904;2022-09-17T06:17:47;100683.13;;;10.22;100.00
4836;BME280;2432;51.226;6.904;2022-09-17T06:20:14;100676.13;;;10.25;100.00
4836;BME280;2432;51.226;6.904;2022-09-17T06:22:41;100678.69;;;10.28;100.00
4836;BME280;2432;51.226;6.904;2022-09-17T06:25:08;100691.69;;;10.31;100.00
4836;BME280;2432;51.226;6.904;2022-09-17T06:27:34;100689.19;;;10.27;100.00
4836;BME280;2432;51.226;6.904;2022-09-17T06:30:01;100687.38;;;10.29;100.00
4836;BME280;2432;51.226;6.904;2022-09-17T06:32:28;100682.97;;;10.31;100.00
4836;BME280;2432;51.226;6.904;2022-09-17T06:34:54;100681.22;;;10.31;100.00
4836;BME280;2432;51.226;6.904;2022-09-17T06:37:30;100696.97;;;10.30;100.00
4836;BME280;2432;51.226;6.904;2022-09-17T06:39:57;100691.75;;;10.28;100.00
4836;BME280;2432;51.226;6.904;2022-09-17T06:42:27;100702.22;;;10.28;100.00
4836;BME280;2432;51.226;6.904;2022-09-17T06:44:54;100698.78;;;10.26;100.00
4836;BME280;2432;51.226;6.904;2022-09-17T06:47:23;100703.13;;;10.27;100.00
4836;BME280;2432;51.226;6.904;2022-09-17T06:49:49;100700.53;;;10.26;100.00
4836;BME280;2432;51.226;6.904;2022-09-17T06:52:16;100703.16;;;10.26;100.00
4836;BME280;2432;51.226;6.904;2022-09-17T06:54:43;100701.34;;;10.29;100.00
4836;BME280;2432;51.226;6.904;2022-09-17T06:57:09;100700.44;;;10.30;100.00
4836;BME280;2432;51.226;6.904;2022-09-17T06:59:36;100704.81;;;10.30;100.00
4836;BME280;2432;51.226;6.904;2022-09-17T07:02:02;100707.41;;;10.31;100.00
4836;BME280;2432;51.226;6.904;2022-09-17T07:04:29;100705.69;;;10.30;100.00
4836;BME280;2432;51.226;6.904;2022-09-17T07:06:55;100713.53;;;10.30;100.00
4836;BME280;2432;51.226;6.904;2022-09-17T07:09:22;100727.44;;;10.32;100.00
4836;BME280;2432;51.226;6.904;2022-09-17T07:11:48;100723.06;;;10.33;100.00
4836;BME280;2432;51.226;6.904;2022-09-17T07:14:15;100724.81;;;10.34;100.00
4836;BME280;2432;51.226;6.904;2022-09-17T07:16:41;100716.97;;;10.34;100.00
4836;BME280;2432;51.226;6.904;2022-09-17T07:19:08;100710.84;;;10.33;100.00
4836;BME280;2432;51.226;6.904;2022-09-17T07:21:34;100713.44;;;10.36;100.00
4836;BME280;2432;51.226;6.904;2022-09-17T07:24:01;100706.41;;;10.38;100.00
4836;BME280;2432;51.226;6.904;2022-09-17T07:26:27;100708.09;;;10.41;100.00
4836;BME280;2432;51.226;6.904;2022-09-17T07:28:54;100699.28;;;10.46;100.00
4836;BME280;2432;51.226;6.904;2022-09-17T07:31:20;100695.66;;;10.54;100.00
4836;BME280;2432;51.226;6.904;2022-09-17T07:33:46;100694.66;;;10.61;100.00
4836;BME280;2432;51.226;6.904;2022-09-17T07:36:14;100693.66;;;10.66;100.00
4836;BME280;2432;51.226;6.904;2022-09-17T07:38:43;100699.50;;;10.81;100.00
4836;BME280;2432;51.226;6.904;2022-09-17T07:41:14;100694.97;;;10.89;100.00
4836;BME280;2432;51.226;6.904;2022-09-17T07:43:42;100687.84;;;10.94;100.00
4836;BME280;2432;51.226;6.904;2022-09-17T07:46:13;100699.03;;;11.03;100.00
4836;BME280;2432;51.226;6.904;2022-09-17T07:48:40;100694.50;;;11.10;100.00
4836;BME280;2432;51.226;6.904;2022-09-17T07:51:07;100696.16;;;11.16;100.00
4836;BME280;2432;51.226;6.904;2022-09-17T07:53:33;100705.69;;;11.18;100.00
4836;BME280;2432;51.226;6.904;2022-09-17T07:56:00;100703.81;;;11.25;100.00
4836;BME280;2432;51.226;6.904;2022-09-17T07:58:29;100701.06;;;11.31;100.00
4836;BME280;2432;51.226;6.904;2022-09-17T08:01:04;100694.91;;;11.32;100.00
4836;BME280;2432;51.226;6.904;2022-09-17T08:03:33;100688.72;;;11.35;100.00
4836;BME280;2432;51.226;6.904;2022-09-17T08:06:04;100688.72;;;11.35;100.00
4836;BME280;2432;51.226;6.904;2022-09-17T08:08:32;100698.94;;;11.48;100.00
4836;BME280;2432;51.226;6.904;2022-09-17T08:11:07;100683.97;;;11.52;100.00
4836;BME280;2432;51.226;6.904;2022-09-17T08:13:35;100694.13;;;11.67;100.00
4836;BME280;2432;51.226;6.904;2022-09-17T08:16:10;100709.59;;;11.78;100.00
4836;BME280;2432;51.226;6.904;2022-09-17T08:18:42;100699.84;;;11.84;100.00
4836;BME280;2432;51.226;6.904;2022-09-17T08:21:11;100695.16;;;11.97;100.00
4836;BME280;2432;51.226;6.904;2022-09-17T08:23:40;100690.09;;;11.89;100.00
4836;BME280;2432;51.226;6.904;2022-09-17T08:26:12;100697.19;;;11.86;100.00
4836;BME280;2432;51.226;6.904;2022-09-17T08:28:43;100691.72;;;11.95;100.00
4836;BME280;2432;51.226;6.904;2022-09-17T08:31:11;100703.88;;;11.99;100.00
4836;BME280;2432;51.226;6.904;2022-09-17T08:33:39;100698.44;;;12.05;100.00
4836;BME280;2432;51.226;6.904;2022-09-17T08:36:08;100697.44;;;12.11;100.00
4836;BME280;2432;51.226;6.904;2022-09-17T08:38:36;100713.06;;;12.15;100.00
4836;BME280;2432;51.226;6.904;2022-09-17T08:41:14;100695.63;;;12.13;100.00
4836;BME280;2432;51.226;6.904;2022-09-17T08:46:24;100706.84;;;12.20;100.00
4836;BME280;2432;51.226;6.904;2022-09-17T08:49:31;100707.63;;;12.23;100.00
4836;BME280;2432;51.226;6.904;2022-09-17T08:55:22;100713.44;;;12.36;100.00
4836;BME280;2432;51.226;6.904;2022-09-17T09:00:35;100701.88;;;12.41;100.00
4836;BME280;2432;51.226;6.904;2022-09-17T09:03:27;100703.84;;;12.33;100.00
4836;BME280;2432;51.226;6.904;2022-09-17T09:05:59;100707.47;;;12.29;100.00
4836;BME280;2432;51.226;6.904;2022-09-17T09:08:33;100706.38;;;12.38;100.00
4836;BME280;2432;51.226;6.904;2022-09-17T09:11:03;100700.78;;;12.50;100.00
4836;BME280;2432;51.226;6.904;2022-09-17T09:13:42;100709.56;;;12.49;99.70
4836;BME280;2432;51.226;6.904;2022-09-17T09:16:20;100701.53;;;12.55;100.00
4836;BME280;2432;51.226;6.904;2022-09-17T09:18:55;100711.03;;;12.59;100.00
4836;BME280;2432;51.226;6.904;2022-09-17T09:21:29;100710.88;;;12.65;100.00
4836;BME280;2432;51.226;6.904;2022-09-17T09:26:36;100701.16;;;12.69;100.00
4836;BME280;2432;51.226;6.904;2022-09-17T09:34:41;100690.03;;;12.59;100.00
4836;BME280;2432;51.226;6.904;2022-09-17T09:37:19;100693.34;;;12.66;100.00
4836;BME280;2432;51.226;6.904;2022-09-17T09:39:49;100700.91;;;12.78;98.70
4836;BME280;2432;51.226;6.904;2022-09-17T09:42:29;100691.06;;;12.85;100.00
4836;BME280;2432;51.226;6.904;2022-09-17T09:45:00;100698.13;;;12.83;98.11
4836;BME280;2432;51.226;6.904;2022-09-17T09:56:03;100691.38;;;13.05;95.26
4836;BME280;2432;51.226;6.904;2022-09-17T09:58:39;100688.13;;;13.26;97.69
4836;BME280;2432;51.226;6.904;2022-09-17T10:01:17;100697.31;;;13.41;91.72
4836;BME280;2432;51.226;6.904;2022-09-17T10:03:48;100705.53;;;13.31;91.23
4836;BME280;2432;51.226;6.904;2022-09-17T10:06:17;100687.44;;;13.18;91.34
4836;BME280;2432;51.226;6.904;2022-09-17T10:11:21;100695.72;;;13.06;92.97
4836;BME280;2432;51.226;6.904;2022-09-17T10:13:48;100692.03;;;13.12;94.12
4836;BME280;2432;51.226;6.904;2022-09-17T10:16:19;100698.28;;;13.08;96.08
4836;BME280;2432;51.226;6.904;2022-09-17T10:18:47;100685.19;;;13.06;89.10
4836;BME280;2432;51.226;6.904;2022-09-17T10:21:41;100680.97;;;13.00;93.50
4836;BME280;2432;51.226;6.904;2022-09-17T10:24:23;100677.72;;;12.92;95.71
4836;BME280;2432;51.226;6.904;2022-09-17T10:26:51;100681.56;;;12.81;94.71
4836;BME280;2432;51.226;6.904;2022-09-17T10:29:25;100673.63;;;12.82;94.61
4836;BME280;2432;51.226;6.904;2022-09-17T10:31:56;100669.06;;;12.89;94.41
4836;BME280;2432;51.226;6.904;2022-09-17T10:34:25;100669.59;;;13.00;97.10
4836;BME280;2432;51.226;6.904;2022-09-17T10:36:53;100658.88;;;13.08;96.77
4836;BME280;2432;51.226;6.904;2022-09-17T10:39:33;100675.31;;;13.14;99.15
4836;BME280;2432;51.226;6.904;2022-09-17T10:44:32;100667.34;;;13.17;97.24
4836;BME280;2432;51.226;6.904;2022-09-17T10:47:14;100674.97;;;13.26;95.36
4836;BME280;2432;51.226;6.904;2022-09-17T10:49:48;100677.88;;;13.45;95.53
4836;BME280;2432;51.226;6.904;2022-09-17T10:52:23;100674.91;;;13.57;93.78
4836;BME280;2432;51.226;6.904;2022-09-17T11:05:26;100651.72;;;13.69;89.62
4836;BME280;2432;51.226;6.904;2022-09-17T11:10:57;100655.00;;;13.49;98.50
4836;BME280;2432;51.226;6.904;2022-09-17T11:14:01;100656.75;;;13.19;100.00
4836;BME280;2432;51.226;6.904;2022-09-17T11:16:44;100656.91;;;13.14;100.00
4836;BME280;2432;51.226;6.904;2022-09-17T11:19:44;100651.13;;;13.33;100.00
4836;BME280;2432;51.226;6.904;2022-09-17T11:28:16;100642.72;;;13.49;92.54
4836;BME280;2432;51.226;6.904;2022-09-17T11:33:53;100640.03;;;13.51;90.67
4836;BME280;2432;51.226;6.904;2022-09-17T11:36:42;100652.25;;;13.52;91.84
4836;BME280;2432;51.226;6.904;2022-09-17T11:39:25;100645.19;;;13.54;89.20
4836;BME280;2432;51.226;6.904;2022-09-17T11:41:53;100669.69;;;13.56;88.78
4836;BME280;2432;51.226;6.904;2022-09-17T11:44:29;100661.19;;;13.48;90.42
4836;BME280;2432;51.226;6.904;2022-09-17T11:47:11;100685.13;;;13.39;88.77
4836;BME280;2432;51.226;6.904;2022-09-17T11:50:02;100679.03;;;13.37;88.99
4836;BME280;2432;51.226;6.904;2022-09-17T11:52:38;100692.34;;;13.60;89.05
4836;BME280;2432;51.226;6.904;2022-09-17T11:55:31;100706.00;;;13.71;87.72
4836;BME280;2432;51.226;6.904;2022-09-17T11:58:02;100709.97;;;13.28;89.65
4836;BME280;2432;51.226;6.904;2022-09-17T12:00:37;100707.78;;;12.82;96.13
4836;BME280;2432;51.226;6.904;2022-09-17T12:03:17;100698.19;;;12.49;99.47
4836;BME280;2432;51.226;6.904;2022-09-17T12:05:55;100704.09;;;12.24;100.00
4836;BME280;2432;51.226;6.904;2022-09-17T12:08:41;100707.00;;;12.13;100.00
4836;BME280;2432;51.226;6.904;2022-09-17T12:11:22;100688.66;;;12.12;100.00
4836;BME280;2432;51.226;6.904;2022-09-17T12:14:38;100698.41;;;12.07;100.00
4836;BME280;2432;51.226;6.904;2022-09-17T12:17:12;100687.91;;;12.08;100.00
4836;BME280;2432;51.226;6.904;2022-09-17T12:19:49;100691.19;;;12.15;100.00
4836;BME280;2432;51.226;6.904;2022-09-17T12:22:29;100695.09;;;12.33;100.00
4836;BME280;2432;51.226;6.904;2022-09-17T12:24:58;100691.94;;;12.54;100.00
4836;BME280;2432;51.226;6.904;2022-09-17T12:27:32;100687.13;;;12.70;100.00
4836;BME280;2432;51.226;6.904;2022-09-17T12:30:20;100691.69;;;12.63;100.00
4836;BME280;2432;51.226;6.904;2022-09-17T12:36:02;100702.97;;;12.34;100.00
4836;BME280;2432;51.226;6.904;2022-09-17T12:43:59;100696.56;;;11.36;100.00
4836;BME280;2432;51.226;6.904;2022-09-17T12:49:58;100716.22;;;11.17;100.00
4836;BME280;2432;51.226;6.904;2022-09-17T12:55:39;100699.03;;;11.03;100.00
4836;BME280;2432;51.226;6.904;2022-09-17T13:01:00;100686.31;;;11.64;100.00
4836;BME280;2432;51.226;6.904;2022-09-17T13:03:52;100682.75;;;12.04;100.00
4836;BME280;2432;51.226;6.904;2022-09-17T13:12:41;100658.88;;;12.77;100.00
4836;BME280;2432;51.226;6.904;2022-09-17T13:15:36;100662.03;;;12.89;100.00
4836;BME280;2432;51.226;6.904;2022-09-17T13:21:22;100648.63;;;12.67;100.00
4836;BME280;2432;51.226;6.904;2022-09-17T13:23:50;100640.66;;;12.72;100.00
4836;BME280;2432;51.226;6.904;2022-09-17T13:26:20;100632.81;;;12.70;100.00
4836;BME280;2432;51.226;6.904;2022-09-17T13:28:50;100629.06;;;12.79;100.00
4836;BME280;2432;51.226;6.904;2022-09-17T13:34:01;100647.25;;;12.85;100.00
4836;BME280;2432;51.226;6.904;2022-09-17T13:36:42;100647.75;;;12.98;100.00
4836;BME280;2432;51.226;6.904;2022-09-17T13:39:38;100639.72;;;13.04;100.00
4836;BME280;2432;51.226;6.904;2022-09-17T13:44:43;100629.84;;;13.11;100.00
4836;BME280;2432;51.226;6.904;2022-09-17T13:47:16;100622.59;;;13.19;100.00
4836;BME280;2432;51.226;6.904;2022-09-17T13:49:48;100618.84;;;13.27;100.00
4836;BME280;2432;51.226;6.904;2022-09-17T13:52:30;100624.66;;;13.39;100.00
4836;BME280;2432;51.226;6.904;2022-09-17T13:54:57;100617.63;;;13.39;99.75
4836;BME280;2432;51.226;6.904;2022-09-17T13:57:25;100624.19;;;13.52;100.00
4836;BME280;2432;51.226;6.904;2022-09-17T13:59:57;100618.69;;;13.60;100.00
4836;BME280;2432;51.226;6.904;2022-09-17T14:02:30;100636.97;;;13.65;99.15
4836;BME280;2432;51.226;6.904;2022-09-17T14:05:23;100637.94;;;13.61;100.00
4836;BME280;2432;51.226;6.904;2022-09-17T14:07:51;100659.47;;;13.47;100.00
4836;BME280;2432;51.226;6.904;2022-09-17T14:10:39;100714.81;;;13.11;100.00
4836;BME280;2432;51.226;6.904;2022-09-17T14:13:48;100755.28;;;11.27;100.00
4836;BME280;2432;51.226;6.904;2022-09-17T14:21:42;100697.78;;;10.32;100.00
4836;BME280;2432;51.226;6.904;2022-09-17T14:27:20;100687.63;;;10.63;100.00
4836;BME280;2432;51.226;6.904;2022-09-17T14:30:02;100682.09;;;10.78;100.00
4836;BME280;2432;51.226;6.904;2022-09-17T14:35:38;100685.97;;;11.00;100.00
4836;BME280;2432;51.226;6.904;2022-09-17T14:38:14;100687.53;;;11.09;100.00
4836;BME280;2432;51.226;6.904;2022-09-17T14:40:47;100704.19;;;11.07;100.00
4836;BME280;2432;51.226;6.904;2022-09-17T14:46:37;100676.31;;;11.02;100.00
4836;BME280;2432;51.226;6.904;2022-09-17T14:51:49;100665.41;;;11.24;100.00
4836;BME280;2432;51.226;6.904;2022-09-17T14:54:27;100674.06;;;11.26;100.00
4836;BME280;2432;51.226;6.904;2022-09-17T14:57:17;100671.31;;;11.32;100.00
4836;BME280;2432;51.226;6.904;2022-09-17T14:59:53;100656.34;;;11.37;100.00
4836;BME280;2432;51.226;6.904;2022-09-17T15:04:47;100655.25;;;11.46;100.00
4836;BME280;2432;51.226;6.904;2022-09-17T15:07:13;100657.78;;;11.50;100.00
4836;BME280;2432;51.226;6.904;2022-09-17T15:09:40;100663.63;;;11.61;100.00
4836;BME280;2432;51.226;6.904;2022-09-17T15:12:06;100663.59;;;11.65;100.00
4836;BME280;2432;51.226;6.904;2022-09-17T15:14:36;100654.50;;;11.78;100.00
4836;BME280;2432;51.226;6.904;2022-09-17T15:17:04;100657.09;;;11.79;100.00
4836;BME280;2432;51.226;6.904;2022-09-17T15:19:34;100655.28;;;11.83;100.00
4836;BME280;2432;51.226;6.904;2022-09-17T15:22:30;100663.06;;;11.86;100.00
4836;BME280;2432;51.226;6.904;2022-09-17T15:25:04;100660.28;;;11.94;100.00
4836;BME280;2432;51.226;6.904;2022-09-17T15:27:40;100659.22;;;12.01;100.00
4836;BME280;2432;51.226;6.904;2022-09-17T15:30:13;100660.94;;;12.02;100.00
4836;BME280;2432;51.226;6.904;2022-09-17T15:32:42;100659.91;;;12.07;100.00
4836;BME280;2432;51.226;6.904;2022-09-17T15:35:16;100672.91;;;12.12;100.00
4836;BME280;2432;51.226;6.904;2022-09-17T15:40:37;100654.09;;;12.29;100.00
4836;BME280;2432;51.226;6.904;2022-09-17T15:43:26;100656.63;;;12.32;100.00
4836;BME280;2432;51.226;6.904;2022-09-17T15:45:54;100664.34;;;12.38;100.00
4836;BME280;2432;51.226;6.904;2022-09-17T15:48:41;100660.78;;;12.40;100.00
4836;BME280;2432;51.226;6.904;2022-09-17T15:51:31;100661.63;;;12.42;100.00